sensor_id;sensor_type;location;lat;lon;timestamp;temperature;humidity
13256;DHT22;37913;48.370;10.930;2022-08-21T00:01:35;15.00;99.90
13256;DHT22;37913;48.370;10.930;2022-08-21T00:04:06;15.10;99.90
13256;DHT22;37913;48.370;10.930;2022-08-21T00:06:46;15.10;99.90
13256;DHT22;37913;48.370;10.930;2022-08-21T00:09:13;15.00;99.90
13256;DHT22;37913;48.370;10.930;2022-08-21T00:11:41;15.00;99.90
13256;DHT22;37913;48.370;10.930;2022-08-21T00:14:09;15.20;99.90
13256;DHT22;37913;48.370;10.930;2022-08-21T00:16:36;15.20;99.90
13256;DHT22;37913;48.370;10.930;2022-08-21T00:19:06;15.00;99.90
13256;DHT22;37913;48.370;10.930;2022-08-21T00:21:34;15.00;99.90
13256;DHT22;37913;48.370;10.930;2022-08-21T00:24:02;14.90;99.90
13256;DHT22;37913;48.370;10.930;2022-08-21T00:26:29;15.00;99.90
13256;DHT22;37913;48.370;10.930;2022-08-21T00:28:55;15.00;99.90
13256;DHT22;37913;48.370;10.930;2022-08-21T00:31:22;15.10;99.90
13256;DHT22;37913;48.370;10.930;2022-08-21T00:33:49;15.10;99.90
13256;DHT22;37913;48.370;10.930;2022-08-21T00:36:18;15.00;99.90
13256;DHT22;37913;48.370;10.930;2022-08-21T00:38:46;15.10;99.90
13256;DHT22;37913;48.370;10.930;2022-08-21T00:41:13;15.00;99.90
13256;DHT22;37913;48.370;10.930;2022-08-21T00:43:50;15.00;99.90
13256;DHT22;37913;48.370;10.930;2022-08-21T00:46:20;15.00;99.90
13256;DHT22;37913;48.370;10.930;2022-08-21T00:48:49;15.00;99.90
13256;DHT22;37913;48.370;10.930;2022-08-21T00:51:22;14.90;99.90
13256;DHT22;37913;48.370;10.930;2022-08-21T00:53:54;14.80;99.90
13256;DHT22;37913;48.370;10.930;2022-08-21T00:56:23;14.90;99.90
13256;DHT22;37913;48.370;10.930;2022-08-21T00:58:51;14.80;99.90
13256;DHT22;37913;48.370;10.930;2022-08-21T01:01:19;14.80;99.90
13256;DHT22;37913;48.370;10.930;2022-08-21T01:03:47;14.80;99.90
13256;DHT22;37913;48.370;10.930;2022-08-21T01:06:14;14.70;99.90
13256;DHT22;37913;48.370;10.930;2022-08-21T01:08:43;14.70;99.90
13256;DHT22;37913;48.370;10.930;2022-08-21T01:11:10;14.80;99.90
13256;DHT22;37913;48.370;10.930;2022-08-21T01:13:38;14.70;99.90
13256;DHT22;37913;48.370;10.930;2022-08-21T01:16:12;14.70;99.90
13256;DHT22;37913;48.370;10.930;2022-08-21T01:18:41;14.70;99.90
13256;DHT22;37913;48.370;10.930;2022-08-21T01:21:11;14.70;99.90
13256;DHT22;37913;48.370;10.930;2022-08-21T01:23:41;14.60;99.90
13256;DHT22;37913;48.370;10.930;2022-08-21T01:26:11;14.60;99.90
13256;DHT22;37913;48.370;10.930;2022-08-21T01:28:44;14.60;99.90
13256;DHT22;37913;48.370;10.930;2022-08-21T01:31:14;14.60;99.90
13256;DHT22;37913;48.370;10.930;2022-08-21T01:33:41;14.60;99.90
13256;DHT22;37913;48.370;10.930;2022-08-21T01:36:09;14.60;99.90
13256;DHT22;37913;48.370;10.930;2022-08-21T01:38:37;14.60;99.90
13256;DHT22;37913;48.370;10.930;2022-08-21T01:41:04;14.70;99.90
13256;DHT22;37913;48.370;10.930;2022-08-21T01:43:30;14.60;99.90
13256;DHT22;37913;48.370;10.930;2022-08-21T01:45:57;14.60;99.90
13256;DHT22;37913;48.370;10.930;2022-08-21T01:48:24;14.60;99.90
13256;DHT22;37913;48.370;10.930;2022-08-21T01:50:51;14.50;99.90
13256;DHT22;37913;48.370;10.930;2022-08-21T01:53:20;14.50;99.90
13256;DHT22;37913;48.370;10.930;2022-08-21T01:55:47;14.40;99.90
13256;DHT22;37913;48.370;10.930;2022-08-21T01:58:14;14.40;99.90
13256;DHT22;37913;48.370;10.930;2022-08-21T02:00:41;14.40;99.90
13256;DHT22;37913;48.370;10.930;2022-08-21T02:03:08;14.30;99.90
13256;DHT22;37913;48.370;10.930;2022-08-21T02:05:35;14.30;99.90
13256;DHT22;37913;48.370;10.930;2022-08-21T02:08:03;14.30;99.90
13256;DHT22;37913;48.370;10.930;2022-08-21T02:10:33;14.20;99.90
13256;DHT22;37913;48.370;10.930;2022-08-21T02:13:00;14.40;99.90
13256;DHT22;37913;48.370;10.930;2022-08-21T02:15:29;14.40;99.90
13256;DHT22;37913;48.370;10.930;2022-08-21T02:17:59;14.40;99.90
13256;DHT22;37913;48.370;10.930;2022-08-21T02:20:28;14.50;99.90
13256;DHT22;37913;48.370;10.930;2022-08-21T02:22:55;14.60;99.90
13256;DHT22;37913;48.370;10.930;2022-08-21T02:25:23;14.80;99.90
13256;DHT22;37913;48.370;10.930;2022-08-21T02:27:53;14.80;99.90
13256;DHT22;37913;48.370;10.930;2022-08-21T02:30:22;14.70;99.90
13256;DHT22;37913;48.370;10.930;2022-08-21T02:32:50;14.50;99.90
13256;DHT22;37913;48.370;10.930;2022-08-21T02:35:17;14.50;99.90
13256;DHT22;37913;48.370;10.930;2022-08-21T02:37:47;14.40;99.90
13256;DHT22;37913;48.370;10.930;2022-08-21T02:40:15;14.40;99.90
13256;DHT22;37913;48.370;10.930;2022-08-21T02:42:43;14.40;99.90
13256;DHT22;37913;48.370;10.930;2022-08-21T02:45:12;14.30;99.90
13256;DHT22;37913;48.370;10.930;2022-08-21T02:47:40;14.20;99.90
13256;DHT22;37913;48.370;10.930;2022-08-21T02:50:07;14.10;99.90
13256;DHT22;37913;48.370;10.930;2022-08-21T02:52:34;14.10;99.90
13256;DHT22;37913;48.370;10.930;2022-08-21T02:55:02;14.10;99.90
13256;DHT22;37913;48.370;10.930;2022-08-21T02:57:30;14.10;99.90
13256;DHT22;37913;48.370;10.930;2022-08-21T02:59:58;14.00;99.90
13256;DHT22;37913;48.370;10.930;2022-08-21T03:02:26;14.00;99.90
13256;DHT22;37913;48.370;10.930;2022-08-21T03:04:53;13.90;99.90
13256;DHT22;37913;48.370;10.930;2022-08-21T03:07:21;13.80;99.90
13256;DHT22;37913;48.370;10.930;2022-08-21T03:09:48;13.80;99.90
13256;DHT22;37913;48.370;10.930;2022-08-21T03:12:15;13.80;99.90
13256;DHT22;37913;48.370;10.930;2022-08-21T03:14:42;13.70;99.90
13256;DHT22;37913;48.370;10.930;2022-08-21T03:17:09;13.70;99.90
13256;DHT22;37913;48.370;10.930;2022-08-21T03:19:37;13.90;99.90
13256;DHT22;37913;48.370;10.930;2022-08-21T03:22:04;14.10;99.90
13256;DHT22;37913;48.370;10.930;2022-08-21T03:24:31;13.90;99.90
13256;DHT22;37913;48.370;10.930;2022-08-21T03:26:58;13.90;99.90
13256;DHT22;37913;48.370;10.930;2022-08-21T03:29:26;13.80;99.90
13256;DHT22;37913;48.370;10.930;2022-08-21T03:31:53;13.80;99.90
13256;DHT22;37913;48.370;10.930;2022-08-21T03:34:20;13.70;99.90
13256;DHT22;37913;48.370;10.930;2022-08-21T03:36:49;13.70;99.90
13256;DHT22;37913;48.370;10.930;2022-08-21T03:39:16;13.70;99.90
13256;DHT22;37913;48.370;10.930;2022-08-21T03:41:44;13.70;99.90
13256;DHT22;37913;48.370;10.930;2022-08-21T03:44:11;13.70;99.90
13256;DHT22;37913;48.370;10.930;2022-08-21T03:46:38;13.70;99.90
13256;DHT22;37913;48.370;10.930;2022-08-21T03:49:06;13.80;99.90
13256;DHT22;37913;48.370;10.930;2022-08-21T03:51:33;14.00;99.90
13256;DHT22;37913;48.370;10.930;2022-08-21T03:54:02;14.20;99.90
13256;DHT22;37913;48.370;10.930;2022-08-21T03:56:30;14.20;99.90
13256;DHT22;37913;48.370;10.930;2022-08-21T03:58:57;14.00;99.90
13256;DHT22;37913;48.370;10.930;2022-08-21T04:01:24;14.00;99.90
13256;DHT22;37913;48.370;10.930;2022-08-21T04:03:51;13.80;99.90
13256;DHT22;37913;48.370;10.930;2022-08-21T04:06:18;13.90;99.90
13256;DHT22;37913;48.370;10.930;2022-08-21T04:08:45;14.00;99.90
13256;DHT22;37913;48.370;10.930;2022-08-21T04:11:13;13.90;99.90
13256;DHT22;37913;48.370;10.930;2022-08-21T04:13:41;13.90;99.90
13256;DHT22;37913;48.370;10.930;2022-08-21T04:16:08;13.80;99.90
13256;DHT22;37913;48.370;10.930;2022-08-21T04:18:35;13.80;99.90
13256;DHT22;37913;48.370;10.930;2022-08-21T04:21:03;13.90;99.90
13256;DHT22;37913;48.370;10.930;2022-08-21T04:23:30;13.90;99.90
13256;DHT22;37913;48.370;10.930;2022-08-21T04:25:57;13.90;99.90
13256;DHT22;37913;48.370;10.930;2022-08-21T04:28:26;13.90;99.90
13256;DHT22;37913;48.370;10.930;2022-08-21T04:30:54;13.80;99.90
13256;DHT22;37913;48.370;10.930;2022-08-21T04:33:22;13.70;99.90
13256;DHT22;37913;48.370;10.930;2022-08-21T04:35:50;13.60;99.90
13256;DHT22;37913;48.370;10.930;2022-08-21T04:38:17;13.70;99.90
13256;DHT22;37913;48.370;10.930;2022-08-21T04:40:45;13.70;99.90
13256;DHT22;37913;48.370;10.930;2022-08-21T04:43:12;13.90;99.90
13256;DHT22;37913;48.370;10.930;2022-08-21T04:45:43;14.10;99.90
13256;DHT22;37913;48.370;10.930;2022-08-21T04:48:12;14.00;99.90
13256;DHT22;37913;48.370;10.930;2022-08-21T04:50:42;14.10;99.90
13256;DHT22;37913;48.370;10.930;2022-08-21T04:53:12;14.10;99.90
13256;DHT22;37913;48.370;10.930;2022-08-21T04:55:42;14.10;99.90
13256;DHT22;37913;48.370;10.930;2022-08-21T04:58:12;14.20;99.90
13256;DHT22;37913;48.370;10.930;2022-08-21T05:00:43;14.30;99.90
13256;DHT22;37913;48.370;10.930;2022-08-21T05:03:11;14.50;99.90
13256;DHT22;37913;48.370;10.930;2022-08-21T05:05:38;14.70;99.90
13256;DHT22;37913;48.370;10.930;2022-08-21T05:08:07;14.90;99.90
13256;DHT22;37913;48.370;10.930;2022-08-21T05:10:38;15.10;99.90
13256;DHT22;37913;48.370;10.930;2022-08-21T05:13:06;15.40;99.90
13256;DHT22;37913;48.370;10.930;2022-08-21T05:15:33;15.60;99.90
13256;DHT22;37913;48.370;10.930;2022-08-21T05:18:01;15.90;99.90
13256;DHT22;37913;48.370;10.930;2022-08-21T05:20:29;16.10;99.90
13256;DHT22;37913;48.370;10.930;2022-08-21T05:22:56;16.10;99.90
13256;DHT22;37913;48.370;10.930;2022-08-21T05:25:23;16.20;99.90
13256;DHT22;37913;48.370;10.930;2022-08-21T05:31:20;16.70;99.90
13256;DHT22;37913;48.370;10.930;2022-08-21T05:33:49;16.70;99.90
13256;DHT22;37913;48.370;10.930;2022-08-21T05:36:17;16.80;99.90
13256;DHT22;37913;48.370;10.930;2022-08-21T05:38:44;16.90;99.90
13256;DHT22;37913;48.370;10.930;2022-08-21T05:41:11;16.80;99.90
13256;DHT22;37913;48.370;10.930;2022-08-21T05:43:38;17.30;99.90
13256;DHT22;37913;48.370;10.930;2022-08-21T05:46:06;17.00;99.90
13256;DHT22;37913;48.370;10.930;2022-08-21T05:48:34;17.40;99.90
13256;DHT22;37913;48.370;10.930;2022-08-21T05:51:06;17.60;99.90
13256;DHT22;37913;48.370;10.930;2022-08-21T05:53:34;18.10;99.90
13256;DHT22;37913;48.370;10.930;2022-08-21T05:56:02;18.90;99.90
13256;DHT22;37913;48.370;10.930;2022-08-21T05:58:30;19.10;99.90
13256;DHT22;37913;48.370;10.930;2022-08-21T06:00:59;19.50;99.90
13256;DHT22;37913;48.370;10.930;2022-08-21T06:03:30;19.80;99.90
13256;DHT22;37913;48.370;10.930;2022-08-21T06:05:57;20.40;99.90
13256;DHT22;37913;48.370;10.930;2022-08-21T06:08:27;20.80;99.90
13256;DHT22;37913;48.370;10.930;2022-08-21T06:10:55;21.30;99.90
13256;DHT22;37913;48.370;10.930;2022-08-21T06:13:27;21.60;99.90
13256;DHT22;37913;48.370;10.930;2022-08-21T06:16:02;22.20;99.90
13256;DHT22;37913;48.370;10.930;2022-08-21T06:18:30;22.70;99.90
13256;DHT22;37913;48.370;10.930;2022-08-21T06:20:57;23.80;99.90
13256;DHT22;37913;48.370;10.930;2022-08-21T06:23:26;24.70;99.90
13256;DHT22;37913;48.370;10.930;2022-08-21T06:25:53;25.40;99.90
13256;DHT22;37913;48.370;10.930;2022-08-21T06:28:20;25.30;99.90
13256;DHT22;37913;48.370;10.930;2022-08-21T06:30:47;25.90;99.90
13256;DHT22;37913;48.370;10.930;2022-08-21T06:33:14;26.50;99.90
13256;DHT22;37913;48.370;10.930;2022-08-21T06:35:41;27.20;99.90
13256;DHT22;37913;48.370;10.930;2022-08-21T06:38:08;27.60;1.00
13256;DHT22;37913;48.370;10.930;2022-08-21T06:40:37;27.60;1.00
13256;DHT22;37913;48.370;10.930;2022-08-21T06:43:09;27.70;1.00
13256;DHT22;37913;48.370;10.930;2022-08-21T06:45:39;27.00;1.00
13256;DHT22;37913;48.370;10.930;2022-08-21T06:48:06;27.50;99.90
13256;DHT22;37913;48.370;10.930;2022-08-21T06:50:33;27.70;99.90
13256;DHT22;37913;48.370;10.930;2022-08-21T06:53:04;28.70;1.00
13256;DHT22;37913;48.370;10.930;2022-08-21T06:55:32;29.50;1.00
13256;DHT22;37913;48.370;10.930;2022-08-21T06:58:01;30.30;13.70
13256;DHT22;37913;48.370;10.930;2022-08-21T07:00:28;31.10;81.60
13256;DHT22;37913;48.370;10.930;2022-08-21T07:02:55;31.40;97.40
13256;DHT22;37913;48.370;10.930;2022-08-21T07:05:24;31.90;99.90
13256;DHT22;37913;48.370;10.930;2022-08-21T07:07:52;32.20;99.90
13256;DHT22;37913;48.370;10.930;2022-08-21T07:10:30;32.30;99.90
13256;DHT22;37913;48.370;10.930;2022-08-21T07:12:57;32.10;99.90
13256;DHT22;37913;48.370;10.930;2022-08-21T07:15:26;32.70;99.90
13256;DHT22;37913;48.370;10.930;2022-08-21T07:17:53;33.10;99.90
13256;DHT22;37913;48.370;10.930;2022-08-21T07:20:21;33.20;98.00
13256;DHT22;37913;48.370;10.930;2022-08-21T07:22:48;33.10;99.20
13256;DHT22;37913;48.370;10.930;2022-08-21T07:25:14;33.10;99.20
13256;DHT22;37913;48.370;10.930;2022-08-21T07:27:41;33.70;99.90
13256;DHT22;37913;48.370;10.930;2022-08-21T07:30:09;33.90;98.70
13256;DHT22;37913;48.370;10.930;2022-08-21T07:32:42;34.60;97.20
13256;DHT22;37913;48.370;10.930;2022-08-21T07:35:09;34.70;96.90
13256;DHT22;37913;48.370;10.930;2022-08-21T07:37:37;35.50;96.20
13256;DHT22;37913;48.370;10.930;2022-08-21T07:40:12;35.60;98.40
13256;DHT22;37913;48.370;10.930;2022-08-21T07:42:41;35.70;94.10
13256;DHT22;37913;48.370;10.930;2022-08-21T07:45:10;36.10;97.50
13256;DHT22;37913;48.370;10.930;2022-08-21T07:47:37;36.70;96.30
13256;DHT22;37913;48.370;10.930;2022-08-21T07:50:07;37.10;92.80
13256;DHT22;37913;48.370;10.930;2022-08-21T07:53:02;37.70;92.40
13256;DHT22;37913;48.370;10.930;2022-08-21T07:55:30;37.90;91.10
13256;DHT22;37913;48.370;10.930;2022-08-21T07:57:57;38.20;90.00
13256;DHT22;37913;48.370;10.930;2022-08-21T08:00:26;38.20;89.20
13256;DHT22;37913;48.370;10.930;2022-08-21T08:02:55;38.10;90.50
13256;DHT22;37913;48.370;10.930;2022-08-21T08:05:25;38.10;92.00
13256;DHT22;37913;48.370;10.930;2022-08-21T08:07:53;38.90;88.10
13256;DHT22;37913;48.370;10.930;2022-08-21T08:10:22;39.30;86.50
13256;DHT22;37913;48.370;10.930;2022-08-21T08:12:50;39.80;84.50
13256;DHT22;37913;48.370;10.930;2022-08-21T08:15:20;39.40;83.60
13256;DHT22;37913;48.370;10.930;2022-08-21T08:17:48;39.40;81.30
13256;DHT22;37913;48.370;10.930;2022-08-21T08:20:16;40.30;84.10
13256;DHT22;37913;48.370;10.930;2022-08-21T08:22:45;40.40;79.60
13256;DHT22;37913;48.370;10.930;2022-08-21T08:25:13;40.80;77.90
13256;DHT22;37913;48.370;10.930;2022-08-21T08:27:41;41.80;76.60
13256;DHT22;37913;48.370;10.930;2022-08-21T08:30:11;42.60;74.60
13256;DHT22;37913;48.370;10.930;2022-08-21T08:32:38;42.70;72.70
13256;DHT22;37913;48.370;10.930;2022-08-21T08:35:06;42.90;72.00
13256;DHT22;37913;48.370;10.930;2022-08-21T08:37:34;43.50;70.30
13256;DHT22;37913;48.370;10.930;2022-08-21T08:40:06;43.70;69.00
13256;DHT22;37913;48.370;10.930;2022-08-21T08:42:35;44.30;67.40
13256;DHT22;37913;48.370;10.930;2022-08-21T08:45:04;44.30;66.10
13256;DHT22;37913;48.370;10.930;2022-08-21T08:47:36;43.80;65.90
13256;DHT22;37913;48.370;10.930;2022-08-21T08:50:06;44.80;64.60
13256;DHT22;37913;48.370;10.930;2022-08-21T08:52:39;45.30;62.50
13256;DHT22;37913;48.370;10.930;2022-08-21T08:55:14;45.80;62.70
13256;DHT22;37913;48.370;10.930;2022-08-21T08:57:44;46.40;60.50
13256;DHT22;37913;48.370;10.930;2022-08-21T09:00:16;46.90;60.10
13256;DHT22;37913;48.370;10.930;2022-08-21T09:02:45;47.40;58.70
13256;DHT22;37913;48.370;10.930;2022-08-21T09:05:20;48.20;57.90
13256;DHT22;37913;48.370;10.930;2022-08-21T09:07:57;48.50;56.90
13256;DHT22;37913;48.370;10.930;2022-08-21T09:10:38;49.10;55.20
13256;DHT22;37913;48.370;10.930;2022-08-21T09:13:15;49.80;54.20
13256;DHT22;37913;48.370;10.930;2022-08-21T09:15:51;49.80;53.30
13256;DHT22;37913;48.370;10.930;2022-08-21T09:18:30;50.40;52.80
13256;DHT22;37913;48.370;10.930;2022-08-21T09:21:09;50.80;52.20
13256;DHT22;37913;48.370;10.930;2022-08-21T09:23:45;47.70;53.10
13256;DHT22;37913;48.370;10.930;2022-08-21T09:26:17;48.80;52.80
13256;DHT22;37913;48.370;10.930;2022-08-21T09:28:46;49.40;51.50
13256;DHT22;37913;48.370;10.930;2022-08-21T09:31:23;50.40;50.30
13256;DHT22;37913;48.370;10.930;2022-08-21T09:33:57;50.50;49.60
13256;DHT22;37913;48.370;10.930;2022-08-21T09:36:30;50.60;49.20
13256;DHT22;37913;48.370;10.930;2022-08-21T09:38:58;51.00;48.30
13256;DHT22;37913;48.370;10.930;2022-08-21T09:41:34;51.10;48.00
13256;DHT22;37913;48.370;10.930;2022-08-21T09:44:03;51.70;47.60
13256;DHT22;37913;48.370;10.930;2022-08-21T09:46:30;51.90;46.80
13256;DHT22;37913;48.370;10.930;2022-08-21T09:48:58;51.60;47.10
13256;DHT22;37913;48.370;10.930;2022-08-21T09:51:29;52.00;46.50
13256;DHT22;37913;48.370;10.930;2022-08-21T09:54:10;52.10;45.40
13256;DHT22;37913;48.370;10.930;2022-08-21T09:56:52;51.80;45.10
13256;DHT22;37913;48.370;10.930;2022-08-21T09:59:40;52.60;45.00
13256;DHT22;37913;48.370;10.930;2022-08-21T10:02:30;52.60;44.10
13256;DHT22;37913;48.370;10.930;2022-08-21T10:04:59;53.30;42.90
13256;DHT22;37913;48.370;10.930;2022-08-21T10:07:29;54.50;41.20
13256;DHT22;37913;48.370;10.930;2022-08-21T10:10:05;54.50;40.80
13256;DHT22;37913;48.370;10.930;2022-08-21T10:12:44;54.10;39.50
13256;DHT22;37913;48.370;10.930;2022-08-21T10:15:20;54.30;38.00
13256;DHT22;37913;48.370;10.930;2022-08-21T10:17:58;55.00;1.00
13256;DHT22;37913;48.370;10.930;2022-08-21T10:20:33;55.30;1.00
13256;DHT22;37913;48.370;10.930;2022-08-21T10:23:12;55.30;1.00
13256;DHT22;37913;48.370;10.930;2022-08-21T10:25:50;55.30;1.00
13256;DHT22;37913;48.370;10.930;2022-08-21T10:28:25;55.30;1.00
13256;DHT22;37913;48.370;10.930;2022-08-21T10:30:57;54.90;12.40
13256;DHT22;37913;48.370;10.930;2022-08-21T10:33:35;53.80;21.00
13256;DHT22;37913;48.370;10.930;2022-08-21T10:36:13;53.50;24.30
13256;DHT22;37913;48.370;10.930;2022-08-21T10:41:49;54.90;28.00
13256;DHT22;37913;48.370;10.930;2022-08-21T10:44:28;55.50;29.00
13256;DHT22;37913;48.370;10.930;2022-08-21T10:47:00;56.40;28.70
13256;DHT22;37913;48.370;10.930;2022-08-21T10:49:36;55.30;30.10
13256;DHT22;37913;48.370;10.930;2022-08-21T10:52:27;56.40;30.50
13256;DHT22;37913;48.370;10.930;2022-08-21T10:55:00;54.60;31.40
13256;DHT22;37913;48.370;10.930;2022-08-21T10:57:35;54.00;30.70
13256;DHT22;37913;48.370;10.930;2022-08-21T11:00:09;50.10;32.30
13256;DHT22;37913;48.370;10.930;2022-08-21T11:02:41;46.20;34.20
13256;DHT22;37913;48.370;10.930;2022-08-21T11:05:14;44.90;35.70
13256;DHT22;37913;48.370;10.930;2022-08-21T11:07:48;48.00;34.90
13256;DHT22;37913;48.370;10.930;2022-08-21T11:10:21;51.10;32.90
13256;DHT22;37913;48.370;10.930;2022-08-21T11:12:53;53.90;32.00
13256;DHT22;37913;48.370;10.930;2022-08-21T11:15:42;54.70;31.40
13256;DHT22;37913;48.370;10.930;2022-08-21T11:18:22;55.90;30.40
13256;DHT22;37913;48.370;10.930;2022-08-21T11:20:59;55.90;30.20
13256;DHT22;37913;48.370;10.930;2022-08-21T11:23:34;56.40;29.40
13256;DHT22;37913;48.370;10.930;2022-08-21T11:26:09;56.60;29.60
13256;DHT22;37913;48.370;10.930;2022-08-21T11:28:42;57.40;28.60
13256;DHT22;37913;48.370;10.930;2022-08-21T11:31:24;58.30;28.80
13256;DHT22;37913;48.370;10.930;2022-08-21T11:34:05;57.10;27.00
13256;DHT22;37913;48.370;10.930;2022-08-21T11:36:41;54.60;28.30
13256;DHT22;37913;48.370;10.930;2022-08-21T11:39:15;55.40;28.50
13256;DHT22;37913;48.370;10.930;2022-08-21T11:41:54;55.90;28.80
13256;DHT22;37913;48.370;10.930;2022-08-21T11:44:29;55.40;28.60
13256;DHT22;37913;48.370;10.930;2022-08-21T11:47:06;55.50;28.30
13256;DHT22;37913;48.370;10.930;2022-08-21T11:49:47;53.90;27.90
13256;DHT22;37913;48.370;10.930;2022-08-21T11:52:22;53.90;28.00
13256;DHT22;37913;48.370;10.930;2022-08-21T11:54:54;51.60;28.70
13256;DHT22;37913;48.370;10.930;2022-08-21T11:57:27;45.50;32.10
13256;DHT22;37913;48.370;10.930;2022-08-21T12:00:00;42.40;34.50
13256;DHT22;37913;48.370;10.930;2022-08-21T12:02:35;40.50;36.80
13256;DHT22;37913;48.370;10.930;2022-08-21T12:05:05;38.70;38.90
13256;DHT22;37913;48.370;10.930;2022-08-21T12:07:36;37.20;40.40
13256;DHT22;37913;48.370;10.930;2022-08-21T12:10:07;35.80;42.30
13256;DHT22;37913;48.370;10.930;2022-08-21T12:12:37;34.50;43.80
13256;DHT22;37913;48.370;10.930;2022-08-21T12:15:24;34.20;43.70
13256;DHT22;37913;48.370;10.930;2022-08-21T12:17:56;34.20;43.30
13256;DHT22;37913;48.370;10.930;2022-08-21T12:20:38;34.90;40.40
13256;DHT22;37913;48.370;10.930;2022-08-21T12:23:16;37.10;38.70
13256;DHT22;37913;48.370;10.930;2022-08-21T12:25:44;40.30;36.60
13256;DHT22;37913;48.370;10.930;2022-08-21T12:28:15;40.60;36.60
13256;DHT22;37913;48.370;10.930;2022-08-21T12:30:44;39.70;37.30
13256;DHT22;37913;48.370;10.930;2022-08-21T12:33:23;41.60;36.30
13256;DHT22;37913;48.370;10.930;2022-08-21T12:35:52;44.20;34.10
13256;DHT22;37913;48.370;10.930;2022-08-21T12:38:22;46.10;33.60
13256;DHT22;37913;48.370;10.930;2022-08-21T12:40:53;46.50;32.10
13256;DHT22;37913;48.370;10.930;2022-08-21T12:43:28;47.20;32.90
13256;DHT22;37913;48.370;10.930;2022-08-21T12:45:56;47.40;32.10
13256;DHT22;37913;48.370;10.930;2022-08-21T12:48:31;47.20;32.60
13256;DHT22;37913;48.370;10.930;2022-08-21T12:51:08;47.20;32.50
13256;DHT22;37913;48.370;10.930;2022-08-21T12:53:41;48.30;32.20
13256;DHT22;37913;48.370;10.930;2022-08-21T12:56:13;49.00;31.60
13256;DHT22;37913;48.370;10.930;2022-08-21T12:58:43;48.90;31.80
13256;DHT22;37913;48.370;10.930;2022-08-21T13:01:17;48.90;30.50
13256;DHT22;37913;48.370;10.930;2022-08-21T13:03:48;49.20;30.70
13256;DHT22;37913;48.370;10.930;2022-08-21T13:06:18;49.30;31.00
13256;DHT22;37913;48.370;10.930;2022-08-21T13:08:47;48.70;30.60
13256;DHT22;37913;48.370;10.930;2022-08-21T13:11:18;48.40;32.00
13256;DHT22;37913;48.370;10.930;2022-08-21T13:13:49;47.10;31.60
13256;DHT22;37913;48.370;10.930;2022-08-21T13:16:20;45.10;32.30
13256;DHT22;37913;48.370;10.930;2022-08-21T13:18:56;44.90;32.30
13256;DHT22;37913;48.370;10.930;2022-08-21T13:21:29;45.80;31.90
13256;DHT22;37913;48.370;10.930;2022-08-21T13:24:10;46.70;31.10
13256;DHT22;37913;48.370;10.930;2022-08-21T13:26:37;46.70;31.70
13256;DHT22;37913;48.370;10.930;2022-08-21T13:29:07;47.50;31.30
13256;DHT22;37913;48.370;10.930;2022-08-21T13:31:38;47.80;30.90
13256;DHT22;37913;48.370;10.930;2022-08-21T13:34:10;47.20;30.60
13256;DHT22;37913;48.370;10.930;2022-08-21T13:36:40;46.60;30.90
13256;DHT22;37913;48.370;10.930;2022-08-21T13:39:11;46.80;30.60
13256;DHT22;37913;48.370;10.930;2022-08-21T13:41:40;47.00;31.80
13256;DHT22;37913;48.370;10.930;2022-08-21T13:44:15;46.70;30.30
13256;DHT22;37913;48.370;10.930;2022-08-21T13:46:43;46.60;31.70
13256;DHT22;37913;48.370;10.930;2022-08-21T13:49:15;46.30;31.40
13256;DHT22;37913;48.370;10.930;2022-08-21T13:51:43;46.40;30.60
13256;DHT22;37913;48.370;10.930;2022-08-21T13:54:20;45.80;31.30
13256;DHT22;37913;48.370;10.930;2022-08-21T13:56:48;45.30;31.90
13256;DHT22;37913;48.370;10.930;2022-08-21T13:59:25;44.30;31.60
13256;DHT22;37913;48.370;10.930;2022-08-21T14:01:55;43.70;32.10
13256;DHT22;37913;48.370;10.930;2022-08-21T14:04:31;43.10;32.90
13256;DHT22;37913;48.370;10.930;2022-08-21T14:06:59;40.60;34.60
13256;DHT22;37913;48.370;10.930;2022-08-21T14:09:30;38.00;36.80
13256;DHT22;37913;48.370;10.930;2022-08-21T14:11:59;35.90;39.30
13256;DHT22;37913;48.370;10.930;2022-08-21T14:14:30;35.50;39.20
13256;DHT22;37913;48.370;10.930;2022-08-21T14:16:59;36.00;39.80
13256;DHT22;37913;48.370;10.930;2022-08-21T14:19:36;35.80;38.20
13256;DHT22;37913;48.370;10.930;2022-08-21T14:22:37;35.60;38.80
13256;DHT22;37913;48.370;10.930;2022-08-21T14:25:06;35.50;39.00
13256;DHT22;37913;48.370;10.930;2022-08-21T14:27:35;35.10;40.80
13256;DHT22;37913;48.370;10.930;2022-08-21T14:30:10;33.90;42.30
13256;DHT22;37913;48.370;10.930;2022-08-21T14:32:40;32.90;44.00
13256;DHT22;37913;48.370;10.930;2022-08-21T14:35:09;32.00;45.40
13256;DHT22;37913;48.370;10.930;2022-08-21T14:37:36;31.20;47.30
13256;DHT22;37913;48.370;10.930;2022-08-21T14:40:05;30.70;48.30
13256;DHT22;37913;48.370;10.930;2022-08-21T14:42:32;30.70;48.80
13256;DHT22;37913;48.370;10.930;2022-08-21T14:45:14;30.30;48.40
13256;DHT22;37913;48.370;10.930;2022-08-21T14:47:41;29.70;49.90
13256;DHT22;37913;48.370;10.930;2022-08-21T14:50:12;29.10;50.10
13256;DHT22;37913;48.370;10.930;2022-08-21T14:52:40;28.40;51.10
13256;DHT22;37913;48.370;10.930;2022-08-21T14:55:08;28.00;52.30
13256;DHT22;37913;48.370;10.930;2022-08-21T14:57:39;27.70;53.20
13256;DHT22;37913;48.370;10.930;2022-08-21T15:00:10;27.80;54.60
13256;DHT22;37913;48.370;10.930;2022-08-21T15:02:37;28.00;55.70
13256;DHT22;37913;48.370;10.930;2022-08-21T15:05:05;28.30;55.20
13256;DHT22;37913;48.370;10.930;2022-08-21T15:07:33;28.50;55.40
13256;DHT22;37913;48.370;10.930;2022-08-21T15:10:01;28.50;55.70
13256;DHT22;37913;48.370;10.930;2022-08-21T15:12:29;28.30;55.90
13256;DHT22;37913;48.370;10.930;2022-08-21T15:14:56;28.20;55.30
13256;DHT22;37913;48.370;10.930;2022-08-21T15:17:23;28.00;57.20
13256;DHT22;37913;48.370;10.930;2022-08-21T15:19:50;27.90;56.50
13256;DHT22;37913;48.370;10.930;2022-08-21T15:22:17;27.70;56.30
13256;DHT22;37913;48.370;10.930;2022-08-21T15:24:46;27.40;56.00
13256;DHT22;37913;48.370;10.930;2022-08-21T15:27:13;27.20;55.80
13256;DHT22;37913;48.370;10.930;2022-08-21T15:29:41;27.00;56.40
13256;DHT22;37913;48.370;10.930;2022-08-21T15:32:18;26.60;56.80
13256;DHT22;37913;48.370;10.930;2022-08-21T15:34:45;26.30;57.90
13256;DHT22;37913;48.370;10.930;2022-08-21T15:37:12;26.00;59.50
13256;DHT22;37913;48.370;10.930;2022-08-21T15:39:39;25.70;59.80
13256;DHT22;37913;48.370;10.930;2022-08-21T15:42:08;25.60;61.20
13256;DHT22;37913;48.370;10.930;2022-08-21T15:44:36;25.40;62.10